createdAt,value
2023-05-15T00:03:45.564Z,8.83
2023-05-15T00:08:49.448Z,8.74
2023-05-15T00:13:51.552Z,8.61
2023-05-15T00:18:53.814Z,8.47
2023-05-15T00:23:57.501Z,8.46
2023-05-15T00:28:59.617Z,8.56
2023-05-15T00:34:02.019Z,8.37
2023-05-15T00:39:05.377Z,8.18
2023-05-15T00:44:09.949Z,8.37
2023-05-15T00:49:12.722Z,8.31
2023-05-15T00:54:16.021Z,8.07
2023-05-15T00:59:19.775Z,7.90
2023-05-15T01:04:22.497Z,7.72
2023-05-15T01:09:28.721Z,7.65
2023-05-15T01:14:30.787Z,7.62
2023-05-15T01:19:33.046Z,7.60
2023-05-15T01:24:53.024Z,7.50
2023-05-15T01:30:02.791Z,7.54
2023-05-15T01:35:12.107Z,7.38
2023-05-15T01:40:16.827Z,7.45
2023-05-15T01:45:23.585Z,7.56
2023-05-15T01:50:28.077Z,7.40
2023-05-15T01:55:31.367Z,7.38
2023-05-15T02:00:36.200Z,7.46
2023-05-15T02:05:39.204Z,7.26
2023-05-15T02:10:42.282Z,7.14
2023-05-15T02:15:45.912Z,7.01
2023-05-15T02:20:48.026Z,6.96
2023-05-15T02:26:03.720Z,7.01
2023-05-15T02:31:18.080Z,6.94
2023-05-15T02:36:28.236Z,6.73
2023-05-15T02:41:32.458Z,6.64
2023-05-15T02:46:37.534Z,6.73
2023-05-15T02:51:39.736Z,6.67
2023-05-15T02:56:41.866Z,6.73
2023-05-15T03:01:45.077Z,6.67
2023-05-15T03:06:47.260Z,6.58
2023-05-15T03:11:49.351Z,6.50
2023-05-15T03:16:52.838Z,6.48
2023-05-15T03:21:55.006Z,6.50
2023-05-15T03:26:57.149Z,6.49
2023-05-15T03:32:01.076Z,6.37
2023-05-15T03:37:03.792Z,6.37
2023-05-15T03:42:06.478Z,6.43
2023-05-15T03:47:09.809Z,6.64
2023-05-15T03:52:12.153Z,6.71
2023-05-15T03:57:13.974Z,6.73
2023-05-15T04:02:17.472Z,6.88
2023-05-15T04:07:19.634Z,7.10
2023-05-15T04:12:21.773Z,7.32
2023-05-15T04:17:25.636Z,7.36
2023-05-15T04:22:27.375Z,7.40
2023-05-15T04:27:29.370Z,7.64
2023-05-15T04:32:32.765Z,8.07
2023-05-15T04:37:34.796Z,9.26
2023-05-15T04:42:39.131Z,11.67
2023-05-15T04:47:43.292Z,13.47
2023-05-15T04:52:45.666Z,15.03
2023-05-15T04:57:47.882Z,16.36
2023-05-15T05:02:51.636Z,17.88
2023-05-15T05:07:53.820Z,19.17
2023-05-15T05:12:55.983Z,19.24
2023-05-15T05:17:59.522Z,19.98
2023-05-15T05:23:01.684Z,20.17
2023-05-15T05:28:03.651Z,20.42
2023-05-15T05:33:06.794Z,21.95
2023-05-15T05:38:09.373Z,21.35
2023-05-15T05:43:11.559Z,20.49
2023-05-15T05:48:15.263Z,22.66
2023-05-15T05:53:17.046Z,20.36
2023-05-15T05:58:25.572Z,23.91
2023-05-15T06:03:30.083Z,23.52
2023-05-15T06:08:32.129Z,24.45
2023-05-15T06:13:34.312Z,25.04
2023-05-15T06:18:37.926Z,26.74
2023-05-15T06:23:40.369Z,24.09
2023-05-15T06:28:42.487Z,25.55
2023-05-15T06:33:45.989Z,26.23
2023-05-15T06:38:48.297Z,24.22
2023-05-15T06:43:50.494Z,24.41
2023-05-15T06:48:54.130Z,25.49
2023-05-15T06:53:56.462Z,26.04
2023-05-15T06:58:58.720Z,23.80
2023-05-15T07:04:02.375Z,24.10
2023-05-15T07:09:04.589Z,25.79
2023-05-15T07:14:07.121Z,22.77
2023-05-15T07:19:10.791Z,23.79
2023-05-15T07:24:13.570Z,24.33
2023-05-15T07:29:15.810Z,22.84
2023-05-15T07:34:18.954Z,22.17
2023-05-15T07:39:21.313Z,22.26
2023-05-15T07:44:23.528Z,21.55
2023-05-15T07:49:26.960Z,22.69
2023-05-15T07:54:29.000Z,21.80
2023-05-15T07:59:33.283Z,22.95
2023-05-15T08:04:37.005Z,22.04
2023-05-15T08:09:38.775Z,22.07
2023-05-15T08:14:41.048Z,22.39
2023-05-15T08:19:44.497Z,21.68
2023-05-15T08:24:46.805Z,22.30
2023-05-15T08:29:49.118Z,22.91
2023-05-15T08:34:52.906Z,22.64
2023-05-15T08:39:55.208Z,22.42
2023-05-15T08:44:57.598Z,22.51
2023-05-15T08:50:07.900Z,21.82
2023-05-15T08:55:10.756Z,22.04
2023-05-15T09:00:15.007Z,21.83
2023-05-15T09:05:18.797Z,21.29
2023-05-15T09:10:22.286Z,20.51
2023-05-15T09:15:25.814Z,20.67
2023-05-15T09:20:31.089Z,20.90
2023-05-15T09:25:37.562Z,20.64
2023-05-15T09:30:42.988Z,20.43
2023-05-15T09:35:46.780Z,20.54
2023-05-15T09:40:49.164Z,20.80
2023-05-15T09:45:51.303Z,20.52
2023-05-15T09:50:55.012Z,21.14
2023-05-15T09:55:57.215Z,20.58
2023-05-15T10:00:59.998Z,21.42
2023-05-15T10:06:03.741Z,21.20
2023-05-15T10:11:07.252Z,21.68
2023-05-15T10:16:09.571Z,22.60
2023-05-15T10:21:16.045Z,22.52
2023-05-15T10:26:24.149Z,21.74
2023-05-15T10:31:27.230Z,22.31
2023-05-15T10:36:31.695Z,23.12
2023-05-15T10:41:36.756Z,24.13
2023-05-15T10:46:38.910Z,25.70
2023-05-15T10:51:42.965Z,25.39
2023-05-15T10:56:45.271Z,24.82
2023-05-15T11:01:47.499Z,24.53
2023-05-15T11:07:11.067Z,25.15
2023-05-15T11:12:13.593Z,24.57
2023-05-15T11:17:16.133Z,25.23
2023-05-15T11:22:22.064Z,23.06
2023-05-15T11:27:26.017Z,23.88
2023-05-15T11:32:56.504Z,23.84
2023-05-15T11:38:02.714Z,22.82
2023-05-15T11:43:07.450Z,22.75
2023-05-15T11:48:14.317Z,22.36
2023-05-15T11:53:19.021Z,22.07
2023-05-15T11:58:22.650Z,22.07
2023-05-15T12:03:26.433Z,21.35
2023-05-15T12:08:34.367Z,21.45
2023-05-15T12:13:36.373Z,21.64
2023-05-15T12:18:38.771Z,21.39
2023-05-15T12:23:42.137Z,18.89
2023-05-15T12:28:44.265Z,18.19
2023-05-15T12:33:46.638Z,18.55
2023-05-15T12:38:50.667Z,18.99
2023-05-15T12:43:53.288Z,19.59
2023-05-15T12:48:58.452Z,20.03
2023-05-15T12:54:01.927Z,20.20
2023-05-15T12:59:04.734Z,20.03
2023-05-15T13:04:06.925Z,20.33
2023-05-15T13:09:10.161Z,21.62
2023-05-15T13:14:12.586Z,22.87
2023-05-15T13:19:14.895Z,22.91
2023-05-15T13:24:18.439Z,24.01
2023-05-15T13:29:20.162Z,23.91
2023-05-15T13:34:22.122Z,23.78
2023-05-15T13:39:25.591Z,22.89
2023-05-15T13:44:27.977Z,24.00
2023-05-15T13:49:30.081Z,24.17
2023-05-15T13:54:33.716Z,25.43
2023-05-15T13:59:35.546Z,24.72
2023-05-15T14:04:37.648Z,23.59
2023-05-15T14:09:40.815Z,23.24
2023-05-15T14:14:42.649Z,22.97
2023-05-15T14:19:45.006Z,22.04
2023-05-15T14:24:48.550Z,21.65
2023-05-15T14:29:50.384Z,19.39
2023-05-15T14:34:52.507Z,18.99
2023-05-15T14:39:55.670Z,18.53
2023-05-15T14:44:57.853Z,18.36
2023-05-15T14:49:59.982Z,18.05
2023-05-15T15:00:10.138Z,18.06
2023-05-15T15:05:12.117Z,18.09
2023-05-15T15:10:15.512Z,18.17
2023-05-15T15:15:17.819Z,18.15
2023-05-15T15:20:20.947Z,18.21
2023-05-15T15:25:24.840Z,18.32
2023-05-15T15:30:27.402Z,18.70
2023-05-15T15:35:30.051Z,18.99
2023-05-15T15:40:35.324Z,18.86
2023-05-15T15:45:37.782Z,18.96
2023-05-15T15:50:39.825Z,18.85
2023-05-15T15:55:44.549Z,18.65
2023-05-15T16:00:48.058Z,18.25
2023-05-15T16:05:50.205Z,18.01
2023-05-15T16:10:54.158Z,17.96
2023-05-15T16:15:56.230Z,18.03
2023-05-15T16:20:58.472Z,17.83
2023-05-15T16:26:01.950Z,17.54
2023-05-15T16:31:04.799Z,17.18
2023-05-15T16:36:07.302Z,16.95
2023-05-15T16:41:11.003Z,16.73
2023-05-15T16:46:13.800Z,16.12
2023-05-15T16:51:16.416Z,15.47
2023-05-15T16:56:19.985Z,14.89
2023-05-15T17:01:22.167Z,14.80
2023-05-15T17:06:24.366Z,14.80
2023-05-15T17:11:27.882Z,14.73
2023-05-15T17:16:30.004Z,14.69
2023-05-15T17:21:32.340Z,14.64
2023-05-15T17:26:35.776Z,14.67
2023-05-15T17:31:39.050Z,14.81
2023-05-15T17:36:41.280Z,14.70
2023-05-15T17:41:44.798Z,14.63
2023-05-15T17:46:47.179Z,14.50
2023-05-15T17:51:48.970Z,14.46
2023-05-15T17:56:52.473Z,14.48
2023-05-15T18:01:54.997Z,14.45
2023-05-15T18:06:57.171Z,14.42
2023-05-15T18:12:00.631Z,14.38
2023-05-15T18:17:02.954Z,14.42
2023-05-15T18:22:05.769Z,14.46
2023-05-15T18:27:09.337Z,14.43
2023-05-15T18:32:11.530Z,14.50
2023-05-15T18:37:13.641Z,14.34
2023-05-15T18:42:17.621Z,14.33
2023-05-15T18:47:21.070Z,14.31
2023-05-15T18:52:23.316Z,14.23
2023-05-15T18:57:26.434Z,14.16
2023-05-15T19:02:28.299Z,14.14
2023-05-15T19:07:30.165Z,14.05
2023-05-15T19:12:33.750Z,14.03
2023-05-15T19:17:38.006Z,14.02
2023-05-15T19:22:40.491Z,13.98
2023-05-15T19:27:44.597Z,13.89
2023-05-15T19:32:46.417Z,13.95
2023-05-15T19:37:48.712Z,13.81
2023-05-15T19:42:52.275Z,13.75
2023-05-15T19:47:55.028Z,13.72
2023-05-15T19:52:56.884Z,13.65
2023-05-15T19:58:00.387Z,13.63
2023-05-15T20:03:02.804Z,13.54
2023-05-15T20:08:05.346Z,13.52
2023-05-15T20:13:09.969Z,13.54
2023-05-15T20:18:12.273Z,13.54
2023-05-15T20:23:14.350Z,13.65
2023-05-15T20:28:17.826Z,13.72
2023-05-15T20:33:20.118Z,13.86
2023-05-15T20:38:22.824Z,13.89
2023-05-15T20:43:26.060Z,13.77
2023-05-15T20:48:28.061Z,13.68
2023-05-15T20:53:30.448Z,13.53
2023-05-15T20:58:33.588Z,13.45
2023-05-15T21:03:35.807Z,13.34
2023-05-15T21:08:37.970Z,13.23
2023-05-15T21:13:41.131Z,13.25
2023-05-15T21:18:43.376Z,13.25
2023-05-15T21:23:45.530Z,13.21
2023-05-15T21:28:48.883Z,13.21
2023-05-15T21:33:51.000Z,13.23
2023-05-15T21:38:52.942Z,13.25
2023-05-15T21:43:56.342Z,13.18
2023-05-15T21:48:58.904Z,13.23
2023-05-15T21:54:01.042Z,13.31
2023-05-15T21:59:04.499Z,13.45
2023-05-15T22:04:06.709Z,13.48
2023-05-15T22:09:08.763Z,13.25
2023-05-15T22:14:12.257Z,13.15
2023-05-15T22:19:29.040Z,13.27
2023-05-15T22:24:35.094Z,13.23
2023-05-15T22:29:38.128Z,13.34
2023-05-15T22:34:40.232Z,13.40
2023-05-15T22:39:42.537Z,13.38
2023-05-15T22:44:46.735Z,13.40
2023-05-15T22:49:49.146Z,13.30
2023-05-15T22:54:51.258Z,13.21
2023-05-15T22:59:54.674Z,13.18
2023-05-15T23:04:56.878Z,13.12
2023-05-15T23:09:59.404Z,13.01
2023-05-15T23:15:02.523Z,12.93
2023-05-15T23:20:05.908Z,12.80
2023-05-15T23:25:08.801Z,12.74
2023-05-15T23:30:13.009Z,12.76
2023-05-15T23:35:15.075Z,12.62
2023-05-15T23:40:17.812Z,12.57
2023-05-15T23:45:21.415Z,12.62
2023-05-15T23:50:23.787Z,12.59
2023-05-15T23:55:25.660Z,12.49
